createdAt,value
2022-12-03T00:00:24.911Z,100.00
2022-12-03T00:02:51.412Z,100.00
2022-12-03T00:05:18.074Z,100.00
2022-12-03T00:07:44.667Z,100.00
2022-12-03T00:10:11.979Z,100.00
2022-12-03T00:12:38.477Z,100.00
2022-12-03T00:15:06.389Z,100.00
2022-12-03T00:17:32.963Z,100.00
2022-12-03T00:19:59.363Z,100.00
2022-12-03T00:22:26.018Z,100.00
2022-12-03T00:24:52.697Z,100.00
2022-12-03T00:27:19.307Z,100.00
2022-12-03T00:29:45.735Z,100.00
2022-12-03T00:32:12.220Z,100.00
2022-12-03T00:34:38.619Z,100.00
2022-12-03T00:37:05.043Z,100.00
2022-12-03T00:39:31.479Z,100.00
2022-12-03T00:41:57.899Z,100.00
2022-12-03T00:44:24.297Z,100.00
2022-12-03T00:46:50.853Z,100.00
2022-12-03T00:49:17.322Z,100.00
2022-12-03T00:51:43.759Z,100.00
2022-12-03T00:54:10.179Z,100.00
2022-12-03T00:56:36.621Z,100.00
2022-12-03T00:59:03.019Z,100.00
2022-12-03T01:01:29.642Z,100.00
2022-12-03T01:03:56.144Z,100.00
2022-12-03T01:06:22.580Z,100.00
2022-12-03T01:08:48.982Z,100.00
2022-12-03T01:11:34.120Z,100.00
2022-12-03T01:14:00.511Z,100.00
2022-12-03T01:16:26.951Z,100.00
2022-12-03T01:18:53.459Z,100.00
2022-12-03T01:21:19.926Z,100.00
2022-12-03T01:23:46.417Z,100.00
2022-12-03T01:26:12.894Z,100.00
2022-12-03T01:28:39.351Z,100.00
2022-12-03T01:31:24.532Z,100.00
2022-12-03T01:33:50.925Z,100.00
2022-12-03T01:36:17.330Z,100.00
2022-12-03T01:38:43.767Z,100.00
2022-12-03T01:41:12.045Z,100.00
2022-12-03T01:43:38.793Z,100.00
2022-12-03T01:46:05.440Z,100.00
2022-12-03T01:48:36.884Z,100.00
2022-12-03T01:51:03.545Z,100.00
2022-12-03T01:53:30.087Z,100.00
2022-12-03T01:55:56.586Z,100.00
2022-12-03T01:58:28.166Z,100.00
2022-12-03T02:00:54.722Z,100.00
2022-12-03T02:03:26.114Z,100.00
2022-12-03T02:05:53.384Z,100.00
2022-12-03T02:08:39.128Z,100.00
2022-12-03T02:11:09.874Z,100.00
2022-12-03T02:13:36.699Z,100.00
2022-12-03T02:16:04.386Z,100.00
2022-12-03T02:18:30.960Z,100.00
2022-12-03T02:21:13.041Z,100.00
2022-12-03T02:23:57.302Z,100.00
2022-12-03T02:26:23.886Z,100.00
2022-12-03T02:28:50.543Z,100.00
2022-12-03T02:31:17.074Z,100.00
2022-12-03T02:33:43.564Z,100.00
2022-12-03T02:36:11.057Z,100.00
2022-12-03T02:38:37.565Z,100.00
2022-12-03T02:41:08.452Z,100.00
2022-12-03T02:43:35.330Z,100.00
2022-12-03T02:46:03.735Z,100.00
2022-12-03T02:48:35.709Z,100.00
2022-12-03T02:51:08.240Z,100.00
2022-12-03T02:53:45.044Z,100.00
2022-12-03T02:56:15.999Z,100.00
2022-12-03T02:58:44.741Z,100.00
2022-12-03T03:01:11.484Z,100.00
2022-12-03T03:03:38.803Z,100.00
2022-12-03T03:06:06.952Z,100.00
2022-12-03T03:08:35.047Z,100.00
2022-12-03T03:11:02.464Z,100.00
2022-12-03T03:13:31.023Z,100.00
2022-12-03T03:15:57.897Z,100.00
2022-12-03T03:18:24.445Z,100.00
2022-12-03T03:20:51.026Z,100.00
2022-12-03T03:23:21.364Z,100.00
2022-12-03T03:25:53.868Z,100.00
2022-12-03T03:28:20.460Z,100.00
2022-12-03T03:30:47.187Z,100.00
2022-12-03T03:33:15.129Z,100.00
2022-12-03T03:35:43.080Z,100.00
2022-12-03T03:38:10.042Z,100.00
2022-12-03T03:40:38.124Z,100.00
2022-12-03T03:43:06.605Z,100.00
2022-12-03T03:45:37.979Z,100.00
2022-12-03T03:48:05.019Z,100.00
2022-12-03T03:50:37.237Z,100.00
2022-12-03T03:53:10.616Z,100.00
2022-12-03T03:55:38.350Z,100.00
2022-12-03T03:58:04.952Z,100.00
2022-12-03T04:00:32.089Z,100.00
2022-12-03T04:02:58.657Z,100.00
2022-12-03T04:05:25.519Z,100.00
2022-12-03T04:07:52.433Z,100.00
2022-12-03T04:10:37.787Z,100.00
2022-12-03T04:13:05.083Z,100.00
2022-12-03T04:15:32.099Z,100.00
2022-12-03T04:18:17.178Z,100.00
2022-12-03T04:20:43.629Z,100.00
2022-12-03T04:23:10.414Z,100.00
2022-12-03T04:25:55.564Z,100.00
2022-12-03T04:28:40.302Z,100.00
2022-12-03T04:31:25.260Z,100.00
2022-12-03T04:34:10.812Z,100.00
2022-12-03T04:36:37.563Z,100.00
2022-12-03T04:39:04.438Z,100.00
2022-12-03T04:41:30.930Z,100.00
2022-12-03T04:44:15.969Z,100.00
2022-12-03T04:46:42.452Z,100.00
2022-12-03T04:49:08.880Z,100.00
2022-12-03T04:51:35.315Z,100.00
2022-12-03T04:54:02.040Z,100.00
2022-12-03T04:56:28.544Z,100.00
2022-12-03T04:58:54.954Z,100.00
2022-12-03T05:01:21.454Z,100.00
2022-12-03T05:03:47.976Z,100.00
2022-12-03T05:06:14.433Z,100.00
2022-12-03T05:08:40.858Z,100.00
2022-12-03T05:11:07.329Z,100.00
2022-12-03T05:13:33.796Z,100.00
2022-12-03T05:16:00.257Z,100.00
2022-12-03T05:18:26.697Z,100.00
2022-12-03T05:20:53.782Z,100.00
2022-12-03T05:23:21.364Z,100.00
2022-12-03T05:25:47.815Z,100.00
2022-12-03T05:28:14.277Z,100.00
2022-12-03T05:30:40.868Z,100.00
2022-12-03T05:33:07.359Z,100.00
2022-12-03T05:35:33.775Z,100.00
2022-12-03T05:38:00.152Z,100.00
2022-12-03T05:40:26.616Z,100.00
2022-12-03T05:42:56.910Z,100.00
2022-12-03T05:45:26.273Z,100.00
2022-12-03T05:47:53.738Z,100.00
2022-12-03T05:50:21.694Z,100.00
2022-12-03T05:52:48.307Z,100.00
2022-12-03T05:55:15.298Z,100.00
2022-12-03T05:57:41.834Z,100.00
2022-12-03T06:00:13.230Z,100.00
2022-12-03T06:02:40.289Z,100.00
2022-12-03T06:05:07.745Z,100.00
2022-12-03T06:07:34.378Z,100.00
2022-12-03T06:10:00.905Z,100.00
2022-12-03T06:12:27.317Z,100.00
2022-12-03T06:14:55.105Z,100.00
2022-12-03T06:17:21.713Z,100.00
2022-12-03T06:19:48.100Z,100.00
2022-12-03T06:22:14.585Z,100.00
2022-12-03T06:24:40.977Z,100.00
2022-12-03T06:27:07.366Z,100.00
2022-12-03T06:29:33.762Z,100.00
2022-12-03T06:32:00.197Z,100.00
2022-12-03T06:34:26.598Z,100.00
2022-12-03T06:36:53.150Z,100.00
2022-12-03T06:39:19.583Z,100.00
2022-12-03T06:41:46.064Z,100.00
2022-12-03T06:44:12.494Z,100.00
2022-12-03T06:46:38.956Z,100.00
2022-12-03T06:49:05.581Z,100.00
2022-12-03T06:51:31.998Z,100.00
2022-12-03T06:53:58.390Z,100.00
2022-12-03T06:56:26.474Z,100.00
2022-12-03T06:58:54.882Z,100.00
2022-12-03T07:01:21.409Z,100.00
2022-12-03T07:03:47.965Z,100.00
2022-12-03T07:06:14.848Z,100.00
2022-12-03T07:08:41.526Z,100.00
2022-12-03T07:11:31.089Z,100.00
2022-12-03T07:14:05.393Z,100.00
2022-12-03T07:16:32.863Z,100.00
2022-12-03T07:18:59.429Z,100.00
2022-12-03T07:21:25.874Z,100.00
2022-12-03T07:23:52.256Z,100.00
2022-12-03T07:26:18.660Z,100.00
2022-12-03T07:28:45.133Z,100.00
2022-12-03T07:31:11.573Z,100.00
2022-12-03T07:33:38.053Z,100.00
2022-12-03T07:36:04.584Z,100.00
2022-12-03T07:38:31.056Z,100.00
2022-12-03T07:40:57.446Z,100.00
2022-12-03T07:43:23.881Z,100.00
2022-12-03T07:45:50.327Z,100.00
2022-12-03T07:48:16.713Z,100.00
2022-12-03T07:50:43.105Z,100.00
2022-12-03T07:53:09.594Z,100.00
2022-12-03T07:55:36.013Z,100.00
2022-12-03T07:58:02.519Z,100.00
2022-12-03T08:00:29.144Z,100.00
2022-12-03T08:02:55.620Z,100.00
2022-12-03T08:05:22.016Z,100.00
2022-12-03T08:07:48.445Z,100.00
2022-12-03T08:10:14.829Z,100.00
2022-12-03T08:12:41.236Z,100.00
2022-12-03T08:15:16.940Z,100.00
2022-12-03T08:17:45.759Z,100.00
2022-12-03T08:20:20.987Z,100.00
2022-12-03T08:22:50.158Z,100.00
2022-12-03T08:25:24.227Z,100.00
2022-12-03T08:27:53.257Z,100.00
2022-12-03T08:30:19.844Z,100.00
2022-12-03T08:32:47.191Z,100.00
2022-12-03T08:35:17.215Z,100.00
2022-12-03T08:37:43.628Z,100.00
2022-12-03T08:40:23.211Z,100.00
2022-12-03T08:42:49.893Z,100.00
2022-12-03T08:45:28.255Z,100.00
2022-12-03T08:48:05.924Z,100.00
2022-12-03T08:50:39.994Z,100.00
2022-12-03T08:53:21.610Z,100.00
2022-12-03T08:55:52.897Z,100.00
2022-12-03T08:58:31.857Z,100.00
2022-12-03T09:01:03.161Z,100.00
2022-12-03T09:03:30.997Z,100.00
2022-12-03T09:05:57.582Z,100.00
2022-12-03T09:08:24.017Z,100.00
2022-12-03T09:10:50.810Z,100.00
2022-12-03T09:13:17.195Z,100.00
2022-12-03T09:15:43.814Z,100.00
2022-12-03T09:18:10.264Z,100.00
2022-12-03T09:20:36.644Z,100.00
2022-12-03T09:23:03.509Z,100.00
2022-12-03T09:25:29.979Z,100.00
2022-12-03T09:27:56.369Z,100.00
2022-12-03T09:30:22.937Z,100.00
2022-12-03T09:32:49.410Z,100.00
2022-12-03T09:35:15.978Z,100.00
2022-12-03T09:37:42.399Z,100.00
2022-12-03T09:40:09.925Z,100.00
2022-12-03T09:42:37.436Z,100.00
2022-12-03T09:45:07.412Z,100.00
2022-12-03T09:47:34.285Z,100.00
2022-12-03T09:50:00.683Z,100.00
2022-12-03T09:52:33.825Z,100.00
2022-12-03T09:55:05.538Z,100.00
2022-12-03T09:57:31.955Z,100.00
2022-12-03T09:59:58.862Z,100.00
2022-12-03T10:02:29.523Z,100.00
2022-12-03T10:04:58.139Z,100.00
2022-12-03T10:07:25.590Z,100.00
2022-12-03T10:09:52.968Z,100.00
2022-12-03T10:12:37.285Z,100.00
2022-12-03T10:15:04.114Z,100.00
2022-12-03T10:17:31.741Z,100.00
2022-12-03T10:19:58.341Z,100.00
2022-12-03T10:22:25.018Z,100.00
2022-12-03T10:25:13.203Z,100.00
2022-12-03T10:27:39.962Z,100.00
2022-12-03T10:30:19.641Z,100.00
2022-12-03T10:32:49.247Z,100.00
2022-12-03T10:35:16.828Z,98.52
2022-12-03T10:37:59.768Z,97.91
2022-12-03T10:40:32.890Z,99.44
2022-12-03T10:43:12.628Z,99.58
2022-12-03T10:45:39.380Z,99.97
2022-12-03T10:48:11.935Z,98.72
2022-12-03T10:50:47.205Z,97.43
2022-12-03T10:53:13.743Z,98.58
2022-12-03T10:55:42.626Z,96.67
2022-12-03T10:58:16.804Z,96.47
2022-12-03T11:00:43.300Z,97.85
2022-12-03T11:03:19.748Z,96.30
2022-12-03T11:05:46.318Z,96.48
2022-12-03T11:08:18.789Z,95.60
2022-12-03T11:10:55.041Z,97.02
2022-12-03T11:13:28.529Z,96.64
2022-12-03T11:15:55.327Z,95.87
2022-12-03T11:18:37.087Z,94.78
2022-12-03T11:21:06.639Z,94.50
2022-12-03T11:23:47.195Z,94.73
2022-12-03T11:26:36.422Z,95.74
2022-12-03T11:29:04.390Z,96.52
2022-12-03T11:31:36.041Z,96.59
2022-12-03T11:34:21.011Z,97.40
2022-12-03T11:37:09.262Z,93.58
2022-12-03T11:39:44.686Z,94.81
2022-12-03T11:42:38.833Z,92.96
2022-12-03T11:45:14.187Z,92.95
2022-12-03T11:47:45.440Z,94.12
2022-12-03T11:50:22.788Z,94.21
2022-12-03T11:52:59.679Z,93.91
2022-12-03T11:55:34.649Z,94.20
2022-12-03T11:58:23.071Z,94.67
2022-12-03T12:00:55.528Z,94.62
2022-12-03T12:03:29.251Z,93.55
2022-12-03T12:06:17.944Z,94.28
2022-12-03T12:08:59.484Z,94.05
2022-12-03T12:11:34.711Z,95.11
2022-12-03T12:14:06.082Z,97.31
2022-12-03T12:16:50.971Z,96.46
2022-12-03T12:19:34.687Z,95.36
2022-12-03T12:22:15.016Z,96.18
2022-12-03T12:24:43.421Z,95.76
2022-12-03T12:27:12.249Z,95.42
2022-12-03T12:29:40.548Z,92.83
2022-12-03T12:32:10.651Z,93.07
2022-12-03T12:34:41.337Z,93.31
2022-12-03T12:37:19.787Z,95.17
2022-12-03T12:39:46.682Z,94.83
2022-12-03T12:42:24.202Z,94.57
2022-12-03T12:44:50.613Z,94.73
2022-12-03T12:47:17.132Z,94.59
2022-12-03T12:49:47.363Z,94.83
2022-12-03T12:52:17.933Z,95.23
2022-12-03T12:54:44.392Z,95.38
2022-12-03T12:57:16.516Z,95.97
2022-12-03T12:59:42.909Z,96.15
2022-12-03T13:02:33.215Z,96.03
2022-12-03T13:05:02.279Z,95.34
2022-12-03T13:07:28.736Z,97.16
2022-12-03T13:09:57.031Z,95.12
2022-12-03T13:12:24.076Z,93.84
2022-12-03T13:14:52.157Z,94.65
2022-12-03T13:17:24.311Z,94.68
2022-12-03T13:20:00.422Z,94.20
2022-12-03T13:22:31.700Z,94.55
2022-12-03T13:25:37.969Z,95.44
2022-12-03T13:28:07.191Z,95.21
2022-12-03T13:30:33.590Z,96.30
2022-12-03T13:33:01.654Z,93.49
2022-12-03T13:35:31.660Z,93.89
2022-12-03T13:37:59.042Z,92.69
2022-12-03T13:40:35.915Z,93.42
2022-12-03T13:43:11.354Z,94.52
2022-12-03T13:45:40.139Z,94.51
2022-12-03T13:48:21.189Z,96.09
2022-12-03T13:50:47.686Z,96.20
2022-12-03T13:53:33.367Z,94.32
2022-12-03T13:56:20.856Z,94.83
2022-12-03T13:58:47.271Z,96.22
2022-12-03T14:01:13.743Z,95.94
2022-12-03T14:03:40.150Z,95.85
2022-12-03T14:06:06.871Z,95.71
2022-12-03T14:08:33.303Z,95.51
2022-12-03T14:11:00.937Z,95.83
2022-12-03T14:13:27.604Z,95.69
2022-12-03T14:15:54.002Z,95.69
2022-12-03T14:18:20.485Z,96.54
2022-12-03T14:20:47.038Z,97.36
2022-12-03T14:23:13.747Z,97.29
2022-12-03T14:25:40.189Z,97.54
2022-12-03T14:28:08.654Z,97.86
2022-12-03T14:30:36.006Z,98.50
2022-12-03T14:33:02.624Z,97.96
2022-12-03T14:35:29.053Z,97.67
2022-12-03T14:37:55.445Z,98.67
2022-12-03T14:40:22.483Z,99.22
2022-12-03T14:42:49.000Z,97.25
2022-12-03T14:45:15.394Z,97.17
2022-12-03T14:47:41.779Z,97.06
2022-12-03T14:50:08.606Z,97.25
2022-12-03T14:52:35.067Z,97.69
2022-12-03T14:55:01.454Z,97.67
2022-12-03T14:57:27.836Z,96.93
2022-12-03T14:59:54.672Z,96.55
2022-12-03T15:02:21.263Z,96.37
2022-12-03T15:04:47.652Z,96.00
2022-12-03T15:07:14.094Z,95.60
2022-12-03T15:09:40.541Z,97.21
2022-12-03T15:12:07.353Z,97.17
2022-12-03T15:14:33.871Z,98.17
2022-12-03T15:17:00.338Z,97.78
2022-12-03T15:19:26.782Z,97.61
2022-12-03T15:21:53.252Z,96.70
2022-12-03T15:24:19.663Z,97.92
2022-12-03T15:26:46.138Z,98.85
2022-12-03T15:29:12.560Z,98.48
2022-12-03T15:31:39.033Z,98.50
2022-12-03T15:34:05.512Z,98.23
2022-12-03T15:36:31.979Z,97.72
2022-12-03T15:38:58.430Z,97.75
2022-12-03T15:41:28.948Z,98.98
2022-12-03T15:44:01.870Z,99.37
2022-12-03T15:46:29.604Z,99.54
2022-12-03T15:48:56.084Z,99.60
2022-12-03T15:51:25.560Z,99.21
2022-12-03T15:53:52.029Z,99.27
2022-12-03T15:56:18.498Z,99.54
2022-12-03T15:58:44.998Z,100.00
2022-12-03T16:01:13.474Z,100.00
2022-12-03T16:03:40.324Z,100.00
2022-12-03T16:06:07.109Z,100.00
2022-12-03T16:08:33.570Z,99.90
2022-12-03T16:10:59.976Z,99.08
2022-12-03T16:13:26.350Z,99.33
2022-12-03T16:15:52.887Z,99.95
2022-12-03T16:18:19.470Z,100.00
2022-12-03T16:20:46.012Z,99.55
2022-12-03T16:23:12.408Z,100.00
2022-12-03T16:25:38.803Z,100.00
2022-12-03T16:28:05.270Z,100.00
2022-12-03T16:30:34.733Z,100.00
2022-12-03T16:33:01.256Z,100.00
2022-12-03T16:35:27.734Z,100.00
2022-12-03T16:37:54.218Z,100.00
2022-12-03T16:40:20.616Z,100.00
2022-12-03T16:42:47.031Z,100.00
2022-12-03T16:45:33.262Z,100.00
2022-12-03T16:48:00.972Z,100.00
2022-12-03T16:50:29.863Z,100.00
2022-12-03T16:52:57.180Z,100.00
2022-12-03T16:55:23.712Z,100.00
2022-12-03T16:57:50.092Z,100.00
2022-12-03T17:00:16.982Z,100.00
2022-12-03T17:02:43.570Z,100.00
2022-12-03T17:05:10.058Z,100.00
2022-12-03T17:07:36.524Z,99.23
2022-12-03T17:10:03.350Z,99.60
2022-12-03T17:12:42.326Z,99.96
2022-12-03T17:15:16.259Z,99.78
2022-12-03T17:17:42.699Z,99.21
2022-12-03T17:20:09.303Z,99.95
2022-12-03T17:22:35.700Z,99.74
2022-12-03T17:25:02.126Z,98.91
2022-12-03T17:27:29.456Z,99.22
2022-12-03T17:29:56.157Z,99.18
2022-12-03T17:32:22.667Z,99.38
2022-12-03T17:34:49.145Z,100.00
2022-12-03T17:37:15.530Z,100.00
2022-12-03T17:39:41.926Z,100.00
2022-12-03T17:42:08.304Z,100.00
2022-12-03T17:44:34.726Z,100.00
2022-12-03T17:47:01.421Z,100.00
2022-12-03T17:49:31.547Z,100.00
2022-12-03T17:51:58.337Z,100.00
2022-12-03T17:54:33.967Z,99.80
2022-12-03T17:57:09.842Z,100.00
2022-12-03T17:59:36.275Z,98.07
2022-12-03T18:02:02.687Z,98.59
2022-12-03T18:04:29.277Z,98.88
2022-12-03T18:07:00.635Z,97.85
2022-12-03T18:09:28.705Z,98.61
2022-12-03T18:11:55.120Z,97.92
2022-12-03T18:14:21.537Z,98.42
2022-12-03T18:16:47.942Z,99.24
2022-12-03T18:19:14.351Z,100.00
2022-12-03T18:21:40.937Z,98.79
2022-12-03T18:24:07.767Z,99.15
2022-12-03T18:26:35.178Z,100.00
2022-12-03T18:29:01.619Z,99.63
2022-12-03T18:31:28.209Z,99.83
2022-12-03T18:33:54.768Z,100.00
2022-12-03T18:36:26.562Z,100.00
2022-12-03T18:38:55.360Z,100.00
2022-12-03T18:41:25.219Z,100.00
2022-12-03T18:43:51.906Z,100.00
2022-12-03T18:46:45.076Z,100.00
2022-12-03T18:49:05.705Z,98.96
2022-12-03T18:51:32.082Z,99.23
2022-12-03T18:53:58.696Z,99.35
2022-12-03T18:56:25.695Z,99.50
2022-12-03T18:58:52.418Z,100.00
2022-12-03T19:01:21.217Z,100.00
2022-12-03T19:03:49.129Z,99.59
2022-12-03T19:06:19.060Z,100.00
2022-12-03T19:08:46.654Z,100.00
2022-12-03T19:11:16.007Z,99.61
2022-12-03T19:13:42.782Z,99.38
2022-12-03T19:16:12.120Z,99.91
2022-12-03T19:18:39.191Z,100.00
2022-12-03T19:21:10.919Z,99.85
2022-12-03T19:23:38.365Z,99.83
2022-12-03T19:26:07.006Z,99.29
2022-12-03T19:28:34.050Z,99.14
2022-12-03T19:31:05.306Z,99.86
2022-12-03T19:33:32.509Z,99.58
2022-12-03T19:36:00.288Z,98.32
2022-12-03T19:38:28.980Z,99.00
2022-12-03T19:41:02.969Z,99.59
2022-12-03T19:43:36.373Z,100.00
2022-12-03T19:46:09.444Z,100.00
2022-12-03T19:48:37.439Z,100.00
2022-12-03T19:51:26.594Z,100.00
2022-12-03T19:53:51.077Z,100.00
2022-12-03T19:56:19.289Z,100.00
2022-12-03T19:58:46.791Z,100.00
2022-12-03T20:01:15.033Z,100.00
2022-12-03T20:03:44.313Z,100.00
2022-12-03T20:06:11.745Z,99.75
2022-12-03T20:08:38.552Z,100.00
2022-12-03T20:11:17.376Z,100.00
2022-12-03T20:13:44.726Z,100.00
2022-12-03T20:16:14.439Z,100.00
2022-12-03T20:18:42.737Z,100.00
2022-12-03T20:21:10.709Z,100.00
2022-12-03T20:23:38.304Z,100.00
2022-12-03T20:26:13.035Z,100.00
2022-12-03T20:28:40.174Z,100.00
2022-12-03T20:31:10.722Z,100.00
2022-12-03T20:33:42.940Z,100.00
2022-12-03T20:36:11.334Z,100.00
2022-12-03T20:38:38.568Z,99.98
2022-12-03T20:41:08.124Z,100.00
2022-12-03T20:43:35.194Z,100.00
2022-12-03T20:48:43.961Z,100.00
2022-12-03T20:51:38.708Z,100.00
2022-12-03T20:54:05.198Z,100.00
2022-12-03T20:56:34.641Z,100.00
2022-12-03T20:59:04.893Z,100.00
2022-12-03T21:01:31.719Z,100.00
2022-12-03T21:03:58.492Z,100.00
2022-12-03T21:06:27.971Z,100.00
2022-12-03T21:08:55.930Z,100.00
2022-12-03T21:11:25.487Z,100.00
2022-12-03T21:13:53.371Z,100.00
2022-12-03T21:16:45.331Z,100.00
2022-12-03T21:19:11.087Z,100.00
2022-12-03T21:21:37.500Z,100.00
2022-12-03T21:24:47.925Z,100.00
2022-12-03T21:27:18.432Z,100.00
2022-12-03T21:29:47.950Z,100.00
2022-12-03T21:32:14.428Z,100.00
2022-12-03T21:34:41.779Z,100.00
2022-12-03T21:37:08.184Z,100.00
2022-12-03T21:39:34.674Z,100.00
2022-12-03T21:42:34.077Z,100.00
2022-12-03T21:44:47.747Z,100.00
2022-12-03T21:47:14.740Z,100.00
2022-12-03T21:49:41.471Z,100.00
2022-12-03T21:52:07.888Z,100.00
2022-12-03T21:54:34.317Z,100.00
2022-12-03T21:57:00.723Z,100.00
2022-12-03T21:59:27.316Z,100.00
2022-12-03T22:01:53.804Z,100.00
2022-12-03T22:04:20.240Z,100.00
2022-12-03T22:06:46.840Z,100.00
2022-12-03T22:09:13.228Z,100.00
2022-12-03T22:11:39.669Z,100.00
2022-12-03T22:14:08.105Z,100.00
2022-12-03T22:16:34.740Z,100.00
2022-12-03T22:19:01.235Z,100.00
2022-12-03T22:21:27.737Z,100.00
2022-12-03T22:23:55.893Z,100.00
2022-12-03T22:26:22.307Z,100.00
2022-12-03T22:28:49.601Z,100.00
2022-12-03T22:31:17.571Z,100.00
2022-12-03T22:33:48.049Z,100.00
2022-12-03T22:36:20.504Z,100.00
2022-12-03T22:38:48.719Z,100.00
2022-12-03T22:41:15.695Z,100.00
2022-12-03T22:43:42.876Z,100.00
2022-12-03T22:46:13.233Z,100.00
2022-12-03T22:48:41.239Z,100.00
2022-12-03T22:51:14.078Z,100.00
2022-12-03T22:53:40.514Z,100.00
2022-12-03T22:56:06.989Z,100.00
2022-12-03T22:58:33.649Z,100.00
2022-12-03T23:01:03.163Z,100.00
2022-12-03T23:03:30.300Z,100.00
2022-12-03T23:05:56.792Z,100.00
2022-12-03T23:08:23.181Z,100.00
2022-12-03T23:10:51.920Z,100.00
2022-12-03T23:13:20.194Z,100.00
2022-12-03T23:15:49.467Z,100.00
2022-12-03T23:18:16.491Z,100.00
2022-12-03T23:20:48.965Z,100.00
2022-12-03T23:23:16.640Z,100.00
2022-12-03T23:25:43.119Z,100.00
2022-12-03T23:28:10.264Z,100.00
2022-12-03T23:30:38.279Z,100.00
2022-12-03T23:33:05.877Z,100.00
2022-12-03T23:35:32.684Z,100.00
2022-12-03T23:37:59.218Z,100.00
2022-12-03T23:40:25.641Z,100.00
2022-12-03T23:42:52.030Z,100.00
2022-12-03T23:45:20.756Z,100.00
2022-12-03T23:47:47.167Z,100.00
2022-12-03T23:50:14.302Z,100.00
2022-12-03T23:52:40.724Z,100.00
2022-12-03T23:55:07.405Z,100.00
2022-12-03T23:57:34.673Z,100.00
